createdAt,value
2023-03-23T16:00:31.005Z,16.79
2023-03-23T16:05:30.873Z,16.74
2023-03-23T16:10:31.718Z,16.68
2023-03-23T16:15:31.234Z,16.62
2023-03-23T16:20:33.416Z,16.59
2023-03-23T16:25:33.501Z,16.53
2023-03-23T16:30:36.889Z,16.46
2023-03-23T16:35:36.898Z,16.36
2023-03-23T16:40:37.021Z,16.25
2023-03-23T16:45:37.241Z,16.14
2023-03-23T16:50:38.364Z,15.98
2023-03-23T16:55:39.431Z,15.84
2023-03-23T17:00:40.920Z,15.72
2023-03-23T17:05:42.087Z,15.60
2023-03-23T17:10:44.189Z,15.50
2023-03-23T17:15:47.126Z,15.40
2023-03-23T17:20:47.101Z,15.29
2023-03-23T17:25:49.067Z,15.21
2023-03-23T17:30:50.120Z,15.12
2023-03-23T17:35:52.190Z,15.05
2023-03-23T17:40:59.115Z,14.96
2023-03-23T17:45:59.072Z,14.87
2023-03-23T17:51:00.140Z,14.78
2023-03-23T17:56:00.807Z,14.72
2023-03-23T18:01:00.904Z,14.67
2023-03-23T18:06:10.357Z,14.63
2023-03-23T18:11:10.588Z,14.59
2023-03-23T18:16:12.385Z,14.55
2023-03-23T18:21:13.674Z,14.51
2023-03-23T18:26:16.772Z,14.49
2023-03-23T18:31:19.245Z,14.48
2023-03-23T18:36:22.395Z,14.47
2023-03-23T18:41:22.732Z,14.46
2023-03-23T18:46:22.953Z,14.46
2023-03-23T18:51:22.853Z,14.45
2023-03-23T18:56:22.929Z,14.44
2023-03-23T19:01:23.890Z,14.44
2023-03-23T19:06:29.944Z,14.43
2023-03-23T19:11:30.145Z,14.43
2023-03-23T19:16:31.327Z,14.42
2023-03-23T19:21:32.137Z,14.38
2023-03-23T19:26:38.452Z,14.33
2023-03-23T19:31:38.436Z,14.27
2023-03-23T19:36:39.435Z,14.22
2023-03-23T19:41:41.740Z,14.17
2023-03-23T19:46:43.193Z,14.12
2023-03-23T19:51:43.369Z,14.08
2023-03-23T19:56:43.600Z,14.08
2023-03-23T20:01:44.180Z,14.11
2023-03-23T20:06:45.297Z,14.18
2023-03-23T20:11:45.046Z,14.23
2023-03-23T20:16:44.309Z,14.27
2023-03-23T20:21:45.178Z,14.30
2023-03-23T20:26:47.636Z,14.35
2023-03-23T20:31:48.271Z,14.38
2023-03-23T20:36:50.323Z,14.41
2023-03-23T20:41:50.956Z,14.43
2023-03-23T20:46:53.018Z,14.42
2023-03-23T20:51:52.938Z,14.40
2023-03-23T20:56:55.662Z,14.37
2023-03-23T21:01:56.231Z,14.35
2023-03-23T21:06:55.940Z,14.33
2023-03-23T21:11:57.432Z,14.28
2023-03-23T21:16:57.195Z,14.26
2023-03-23T21:21:57.382Z,14.26
2023-03-23T21:26:59.016Z,14.25
2023-03-23T21:37:03.115Z,14.29
2023-03-23T21:42:04.590Z,14.31
2023-03-23T21:47:04.813Z,14.33
2023-03-23T21:52:05.167Z,14.33
2023-03-23T21:57:05.321Z,14.31
2023-03-23T22:02:04.901Z,14.27
2023-03-23T22:07:03.729Z,14.21
2023-03-23T22:12:03.458Z,14.13
2023-03-23T22:17:04.222Z,14.04
2023-03-23T22:22:04.484Z,13.92
2023-03-23T22:27:03.950Z,13.82
2023-03-23T22:32:02.605Z,13.72
2023-03-23T22:37:04.078Z,13.63
2023-03-23T22:42:07.708Z,13.57
2023-03-23T22:47:08.355Z,13.52
2023-03-23T22:52:08.733Z,13.47
2023-03-23T22:57:08.414Z,13.41
2023-03-23T23:02:07.412Z,13.38
2023-03-23T23:07:12.812Z,13.35
2023-03-23T23:12:14.870Z,13.32
2023-03-23T23:17:15.226Z,13.29
2023-03-23T23:22:19.402Z,13.25
2023-03-23T23:27:19.211Z,13.22
2023-03-23T23:32:18.750Z,13.19
2023-03-23T23:37:17.794Z,13.15
2023-03-23T23:42:16.706Z,13.09
2023-03-23T23:47:16.956Z,13.02
2023-03-23T23:52:16.665Z,12.94
2023-03-23T23:57:16.879Z,12.86
